createdAt,value
2022-12-29T00:00:40.516Z,1.55
2022-12-29T00:03:08.488Z,1.35
2022-12-29T00:05:40.309Z,1.67
2022-12-29T00:08:08.063Z,1.50
2022-12-29T00:10:37.253Z,1.40
2022-12-29T00:13:22.955Z,1.70
2022-12-29T00:15:50.808Z,1.67
2022-12-29T00:18:18.749Z,1.40
2022-12-29T00:21:03.938Z,1.70
2022-12-29T00:23:49.400Z,1.40
2022-12-29T00:26:37.078Z,1.80
2022-12-29T00:29:22.471Z,1.50
2022-12-29T00:32:07.728Z,1.73
2022-12-29T00:34:52.971Z,1.70
2022-12-29T00:37:41.290Z,1.52
2022-12-29T00:40:27.709Z,1.45
2022-12-29T00:43:14.444Z,1.50
2022-12-29T00:45:42.865Z,2.10
2022-12-29T00:48:10.739Z,1.60
2022-12-29T00:50:37.836Z,1.50
2022-12-29T00:53:05.718Z,1.63
2022-12-29T00:55:33.645Z,2.00
2022-12-29T00:58:03.372Z,1.58
2022-12-29T01:00:31.322Z,1.95
2022-12-29T01:02:59.395Z,1.92
2022-12-29T01:05:27.473Z,1.90
2022-12-29T01:07:55.359Z,1.60
2022-12-29T01:10:22.211Z,2.03
2022-12-29T01:12:51.280Z,1.80
2022-12-29T01:15:20.716Z,1.83
2022-12-29T01:17:49.914Z,1.70
2022-12-29T01:20:18.256Z,1.55
2022-12-29T01:22:46.136Z,1.70
2022-12-29T01:25:14.010Z,1.77
2022-12-29T01:27:42.084Z,2.03
2022-12-29T01:30:11.357Z,2.00
2022-12-29T01:32:40.559Z,1.67
2022-12-29T01:35:09.066Z,1.67
2022-12-29T01:37:37.020Z,1.63
2022-12-29T01:40:05.677Z,1.60
2022-12-29T01:42:33.875Z,1.55
2022-12-29T01:45:10.453Z,1.52
2022-12-29T01:47:43.969Z,2.17
2022-12-29T01:50:17.692Z,1.63
2022-12-29T01:52:53.348Z,1.55
2022-12-29T01:55:22.206Z,1.80
2022-12-29T01:57:52.974Z,1.60
2022-12-29T02:00:21.542Z,1.95
2022-12-29T02:02:54.245Z,1.80
2022-12-29T02:05:27.220Z,1.60
2022-12-29T02:07:55.929Z,1.35
2022-12-29T02:10:27.800Z,1.60
2022-12-29T02:12:57.332Z,1.40
2022-12-29T02:15:35.315Z,1.50
2022-12-29T02:18:20.953Z,1.95
2022-12-29T02:21:38.371Z,1.55
2022-12-29T02:24:35.523Z,1.77
2022-12-29T02:27:31.198Z,1.30
2022-12-29T02:30:14.091Z,1.55
2022-12-29T02:32:52.358Z,1.23
2022-12-29T02:35:31.836Z,1.50
2022-12-29T02:38:09.810Z,1.20
2022-12-29T02:40:43.136Z,1.30
2022-12-29T02:43:18.351Z,1.33
2022-12-29T02:45:52.672Z,1.42
2022-12-29T02:48:30.476Z,0.90
2022-12-29T02:51:04.002Z,1.60
2022-12-29T02:53:51.715Z,1.35
2022-12-29T02:56:20.814Z,1.45
2022-12-29T02:58:48.750Z,1.40
2022-12-29T03:04:40.543Z,1.30
2022-12-29T03:07:16.941Z,1.20
2022-12-29T03:09:54.733Z,1.20
2022-12-29T03:12:49.199Z,1.30
2022-12-29T03:15:41.261Z,1.70
2022-12-29T03:18:17.186Z,1.30
2022-12-29T03:20:54.772Z,1.15
2022-12-29T03:23:27.050Z,1.20
2022-12-29T03:25:58.271Z,1.10
2022-12-29T03:28:32.962Z,1.35
2022-12-29T03:31:02.520Z,1.55
2022-12-29T03:33:32.509Z,1.23
2022-12-29T03:36:07.082Z,0.90
2022-12-29T03:38:41.952Z,1.10
2022-12-29T03:41:13.855Z,1.17
2022-12-29T03:43:41.930Z,1.10
2022-12-29T03:46:09.798Z,1.05
2022-12-29T03:48:40.030Z,1.10
2022-12-29T03:51:09.396Z,1.00
2022-12-29T03:53:37.647Z,0.93
2022-12-29T03:56:05.853Z,1.17
2022-12-29T03:58:34.923Z,1.17
2022-12-29T04:01:09.498Z,0.82
2022-12-29T04:03:39.507Z,0.90
2022-12-29T04:06:09.654Z,1.00
2022-12-29T04:08:47.565Z,0.77
2022-12-29T04:11:15.473Z,0.90
2022-12-29T04:13:43.885Z,1.02
2022-12-29T04:16:16.186Z,0.93
2022-12-29T04:18:44.308Z,1.13
2022-12-29T04:21:13.516Z,0.57
2022-12-29T04:23:43.861Z,0.90
2022-12-29T04:26:13.534Z,0.77
2022-12-29T04:28:52.368Z,0.60
2022-12-29T04:31:39.855Z,1.08
2022-12-29T04:34:09.151Z,0.80
2022-12-29T04:36:39.843Z,0.77
2022-12-29T04:39:08.196Z,0.63
2022-12-29T04:41:37.193Z,0.70
2022-12-29T04:44:10.661Z,0.80
2022-12-29T04:47:07.407Z,0.90
2022-12-29T04:49:52.522Z,0.70
2022-12-29T04:52:36.842Z,0.60
2022-12-29T04:55:05.783Z,0.52
2022-12-29T04:57:33.916Z,0.70
2022-12-29T05:00:02.423Z,0.70
2022-12-29T05:02:30.525Z,0.70
2022-12-29T05:04:58.746Z,0.65
2022-12-29T05:07:27.851Z,0.60
2022-12-29T05:09:58.175Z,0.80
2022-12-29T05:12:26.207Z,0.60
2022-12-29T05:15:00.650Z,0.60
2022-12-29T05:17:28.729Z,0.60
2022-12-29T05:19:57.130Z,0.73
2022-12-29T05:22:25.840Z,0.80
2022-12-29T05:24:55.760Z,0.77
2022-12-29T05:27:26.124Z,0.80
2022-12-29T05:30:02.138Z,0.63
2022-12-29T05:32:29.975Z,0.70
2022-12-29T05:34:58.816Z,0.65
2022-12-29T05:37:27.117Z,0.50
2022-12-29T05:39:55.026Z,0.60
2022-12-29T05:42:23.048Z,0.70
2022-12-29T05:45:15.599Z,0.47
2022-12-29T05:48:07.228Z,0.60
2022-12-29T05:50:54.242Z,0.63
2022-12-29T05:53:26.955Z,0.68
2022-12-29T05:55:54.896Z,0.60
2022-12-29T05:58:22.930Z,0.63
2022-12-29T06:00:53.158Z,0.82
2022-12-29T06:03:21.206Z,0.60
2022-12-29T06:05:49.195Z,0.50
2022-12-29T06:08:18.047Z,0.60
2022-12-29T06:11:11.457Z,0.73
2022-12-29T06:13:43.766Z,0.70
2022-12-29T06:16:14.943Z,0.60
2022-12-29T06:18:43.837Z,0.50
2022-12-29T06:21:12.214Z,0.40
2022-12-29T06:23:40.145Z,0.50
2022-12-29T06:26:08.063Z,0.63
2022-12-29T06:28:35.952Z,0.43
2022-12-29T06:31:04.209Z,0.75
2022-12-29T06:33:33.379Z,0.60
2022-12-29T06:36:01.598Z,0.77
2022-12-29T06:38:31.659Z,0.70
2022-12-29T06:41:00.882Z,0.50
2022-12-29T06:44:07.083Z,0.38
2022-12-29T06:49:44.477Z,0.53
2022-12-29T06:52:13.324Z,0.50
2022-12-29T06:54:42.079Z,0.40
2022-12-29T06:57:09.990Z,0.47
2022-12-29T06:59:37.913Z,0.63
2022-12-29T07:02:06.527Z,0.60
2022-12-29T07:04:34.467Z,0.50
2022-12-29T07:07:03.876Z,0.60
2022-12-29T07:09:31.762Z,0.50
2022-12-29T07:11:59.589Z,0.77
2022-12-29T07:14:27.539Z,1.10
2022-12-29T07:16:55.429Z,0.80
2022-12-29T07:19:23.422Z,1.33
2022-12-29T07:21:51.195Z,0.95
2022-12-29T07:24:22.878Z,1.10
2022-12-29T07:26:50.885Z,0.80
2022-12-29T07:29:18.675Z,0.90
2022-12-29T07:31:46.669Z,0.80
2022-12-29T07:34:14.545Z,1.10
2022-12-29T07:36:42.600Z,0.90
2022-12-29T07:39:10.488Z,0.90
2022-12-29T07:41:39.771Z,1.00
2022-12-29T07:44:12.585Z,0.95
2022-12-29T07:47:00.810Z,1.52
2022-12-29T07:49:30.240Z,1.00
2022-12-29T07:51:58.040Z,0.90
2022-12-29T07:54:28.625Z,1.08
2022-12-29T07:56:58.545Z,1.10
2022-12-29T07:59:26.442Z,0.90
2022-12-29T08:01:54.709Z,0.98
2022-12-29T08:04:22.609Z,0.90
2022-12-29T08:06:50.809Z,1.40
2022-12-29T08:09:22.616Z,1.10
2022-12-29T08:11:52.382Z,1.10
2022-12-29T08:14:21.731Z,1.15
2022-12-29T08:16:49.651Z,0.90
2022-12-29T08:19:17.530Z,1.10
2022-12-29T08:21:45.368Z,1.02
2022-12-29T08:24:13.231Z,1.08
2022-12-29T08:26:41.158Z,0.93
2022-12-29T08:29:09.034Z,0.80
2022-12-29T08:31:38.659Z,0.90
2022-12-29T08:34:06.797Z,0.90
2022-12-29T08:36:34.708Z,1.10
2022-12-29T08:39:02.554Z,1.10
2022-12-29T08:41:30.419Z,0.80
2022-12-29T08:43:58.408Z,1.00
2022-12-29T08:46:26.452Z,0.85
2022-12-29T08:48:56.088Z,1.00
2022-12-29T08:51:25.091Z,1.30
2022-12-29T08:53:54.101Z,1.30
2022-12-29T08:56:24.633Z,1.30
2022-12-29T08:58:55.860Z,0.93
2022-12-29T09:01:24.590Z,1.13
2022-12-29T09:06:41.873Z,1.35
2022-12-29T09:09:09.805Z,0.98
2022-12-29T09:11:37.727Z,1.30
2022-12-29T09:14:05.700Z,0.80
2022-12-29T09:16:33.821Z,0.50
2022-12-29T09:19:02.171Z,0.35
2022-12-29T09:21:30.180Z,0.43
2022-12-29T09:23:59.386Z,0.40
2022-12-29T09:26:27.259Z,0.30
2022-12-29T09:28:55.076Z,0.22
2022-12-29T09:31:23.366Z,0.22
2022-12-29T09:33:51.364Z,0.20
2022-12-29T09:36:19.132Z,0.30
2022-12-29T09:38:47.097Z,0.30
2022-12-29T09:41:25.605Z,0.30
2022-12-29T09:44:19.521Z,0.30
2022-12-29T09:46:51.381Z,0.38
2022-12-29T09:49:28.124Z,0.47
2022-12-29T09:52:01.430Z,0.30
2022-12-29T09:54:51.497Z,0.60
2022-12-29T09:57:28.561Z,1.08
2022-12-29T10:00:01.834Z,0.40
2022-12-29T10:02:36.255Z,0.47
2022-12-29T10:05:04.997Z,0.40
2022-12-29T10:07:42.024Z,0.30
2022-12-29T10:10:22.742Z,0.40
2022-12-29T10:13:03.457Z,0.40
2022-12-29T10:15:42.802Z,0.40
2022-12-29T10:18:34.556Z,0.50
2022-12-29T10:21:10.872Z,0.50
2022-12-29T10:23:44.745Z,0.93
2022-12-29T10:26:16.156Z,0.88
2022-12-29T10:28:50.380Z,0.65
2022-12-29T10:31:22.186Z,0.65
2022-12-29T10:33:54.143Z,0.60
2022-12-29T10:36:29.561Z,0.75
2022-12-29T10:39:08.545Z,0.50
2022-12-29T10:41:43.223Z,0.60
2022-12-29T10:44:18.002Z,0.50
2022-12-29T10:46:50.312Z,0.60
2022-12-29T10:49:22.295Z,0.40
2022-12-29T10:51:53.757Z,0.57
2022-12-29T10:54:28.800Z,0.63
2022-12-29T10:57:02.503Z,0.50
2022-12-29T10:59:36.175Z,0.60
2022-12-29T11:02:28.309Z,0.93
2022-12-29T11:05:04.719Z,0.50
2022-12-29T11:07:33.541Z,0.70
2022-12-29T11:10:20.728Z,0.60
2022-12-29T11:13:00.033Z,0.52
2022-12-29T11:15:29.626Z,0.80
2022-12-29T11:18:00.723Z,0.60
2022-12-29T11:20:38.388Z,0.40
2022-12-29T11:23:22.789Z,0.80
2022-12-29T11:26:08.576Z,0.55
2022-12-29T11:28:36.767Z,0.57
2022-12-29T11:31:08.733Z,0.60
2022-12-29T11:33:38.753Z,0.90
2022-12-29T11:36:09.978Z,0.75
2022-12-29T11:38:41.430Z,0.60
2022-12-29T11:41:15.532Z,0.50
2022-12-29T11:43:45.906Z,0.60
2022-12-29T11:46:19.664Z,0.30
2022-12-29T11:48:49.323Z,0.60
2022-12-29T11:51:25.768Z,0.60
2022-12-29T11:53:57.317Z,0.40
2022-12-29T11:56:40.367Z,0.43
2022-12-29T11:59:41.995Z,0.50
2022-12-29T12:02:43.673Z,0.75
2022-12-29T12:05:32.493Z,0.50
2022-12-29T12:08:07.562Z,0.63
2022-12-29T12:10:43.874Z,0.50
2022-12-29T12:13:22.152Z,0.50
2022-12-29T12:15:57.482Z,0.70
2022-12-29T12:18:36.565Z,0.65
2022-12-29T12:21:12.734Z,0.57
2022-12-29T12:23:56.302Z,0.57
2022-12-29T12:26:32.386Z,0.68
2022-12-29T12:29:03.056Z,0.50
2022-12-29T12:31:46.042Z,0.50
2022-12-29T12:34:22.052Z,0.40
2022-12-29T12:37:01.464Z,0.30
2022-12-29T12:39:41.483Z,0.50
2022-12-29T12:42:25.572Z,0.50
2022-12-29T12:45:06.242Z,0.60
2022-12-29T12:47:49.991Z,0.70
2022-12-29T12:50:43.226Z,0.60
2022-12-29T12:53:42.319Z,0.50
2022-12-29T12:56:25.956Z,0.63
2022-12-29T12:59:08.975Z,0.50
2022-12-29T13:01:44.981Z,0.68
2022-12-29T13:04:30.771Z,0.47
2022-12-29T13:07:12.585Z,0.60
2022-12-29T13:09:58.369Z,0.70
2022-12-29T13:12:38.195Z,0.45
2022-12-29T13:15:21.187Z,0.50
2022-12-29T13:17:56.787Z,0.32
2022-12-29T13:20:33.745Z,0.45
2022-12-29T13:23:10.287Z,0.60
2022-12-29T13:25:45.100Z,0.50
2022-12-29T13:28:19.018Z,0.40
2022-12-29T13:30:54.865Z,0.25
2022-12-29T13:33:31.157Z,0.57
2022-12-29T13:36:06.011Z,0.60
2022-12-29T13:38:41.058Z,0.40
2022-12-29T13:41:12.759Z,0.55
2022-12-29T13:43:44.283Z,0.67
2022-12-29T13:48:51.052Z,0.60
2022-12-29T13:51:25.665Z,1.33
2022-12-29T13:54:11.918Z,0.50
2022-12-29T13:56:43.716Z,0.50
2022-12-29T13:59:22.385Z,0.43
2022-12-29T14:01:58.884Z,0.45
2022-12-29T14:04:33.685Z,0.80
2022-12-29T14:07:05.147Z,0.80
2022-12-29T14:09:43.711Z,0.50
2022-12-29T14:12:31.340Z,0.55
2022-12-29T14:15:25.341Z,1.10
2022-12-29T14:18:14.143Z,1.17
2022-12-29T14:20:51.838Z,0.60
2022-12-29T14:23:29.996Z,0.40
2022-12-29T14:26:13.180Z,0.60
2022-12-29T14:28:42.922Z,0.60
2022-12-29T14:31:42.146Z,0.60
2022-12-29T14:34:30.250Z,0.70
2022-12-29T14:37:00.664Z,1.05
2022-12-29T14:39:38.783Z,0.60
2022-12-29T14:42:13.902Z,0.47
2022-12-29T14:44:50.343Z,0.50
2022-12-29T14:47:22.418Z,0.60
2022-12-29T14:49:50.941Z,0.60
2022-12-29T14:52:23.435Z,0.43
2022-12-29T14:54:56.239Z,0.70
2022-12-29T14:57:34.047Z,0.60
2022-12-29T15:00:09.966Z,0.75
2022-12-29T15:02:43.227Z,0.93
2022-12-29T15:05:29.510Z,0.50
2022-12-29T15:07:59.288Z,0.80
2022-12-29T15:10:33.978Z,0.70
2022-12-29T15:13:07.292Z,1.42
2022-12-29T15:15:40.232Z,1.75
2022-12-29T15:18:28.322Z,1.17
2022-12-29T15:20:59.022Z,2.00
2022-12-29T15:23:27.475Z,0.95
2022-12-29T15:25:58.909Z,0.50
2022-12-29T15:28:38.129Z,0.88
2022-12-29T15:31:08.072Z,0.68
2022-12-29T15:33:41.668Z,0.57
2022-12-29T15:36:14.383Z,0.73
2022-12-29T15:41:55.470Z,0.80
2022-12-29T15:44:30.538Z,0.60
2022-12-29T15:46:58.916Z,0.73
2022-12-29T15:49:32.038Z,0.35
2022-12-29T15:52:01.148Z,0.70
2022-12-29T15:54:33.224Z,0.65
2022-12-29T15:57:01.154Z,0.98
2022-12-29T15:59:32.889Z,0.80
2022-12-29T16:02:08.588Z,0.80
2022-12-29T16:05:01.704Z,0.60
2022-12-29T16:07:35.797Z,0.57
2022-12-29T16:10:07.811Z,0.60
2022-12-29T16:12:39.083Z,0.80
2022-12-29T16:15:14.931Z,0.98
2022-12-29T16:17:48.734Z,0.75
2022-12-29T16:20:20.928Z,0.73
2022-12-29T16:22:51.626Z,0.73
2022-12-29T16:25:24.852Z,0.73
2022-12-29T16:27:54.414Z,1.00
2022-12-29T16:30:32.895Z,0.98
2022-12-29T16:33:04.252Z,1.05
2022-12-29T16:35:41.836Z,1.08
2022-12-29T16:38:16.585Z,1.20
2022-12-29T16:40:55.435Z,0.90
2022-12-29T16:43:25.779Z,0.82
2022-12-29T16:46:23.929Z,0.70
2022-12-29T16:48:54.496Z,1.60
2022-12-29T16:51:32.233Z,0.80
2022-12-29T16:54:01.131Z,1.23
2022-12-29T16:56:32.493Z,0.90
2022-12-29T16:59:05.378Z,0.93
2022-12-29T17:01:38.006Z,1.50
2022-12-29T17:04:08.703Z,1.15
2022-12-29T17:06:36.519Z,1.20
2022-12-29T17:09:18.134Z,1.30
2022-12-29T17:12:04.971Z,1.00
2022-12-29T17:14:42.364Z,1.15
2022-12-29T17:17:21.370Z,0.85
2022-12-29T17:19:52.714Z,1.10
2022-12-29T17:22:25.628Z,0.60
2022-12-29T17:24:54.547Z,0.70
2022-12-29T17:27:29.613Z,0.57
2022-12-29T17:30:00.780Z,0.70
2022-12-29T17:32:30.525Z,0.70
2022-12-29T17:34:58.501Z,0.70
2022-12-29T17:37:35.865Z,0.80
2022-12-29T17:40:05.465Z,1.15
2022-12-29T17:42:34.820Z,0.63
2022-12-29T17:45:03.770Z,0.60
2022-12-29T17:47:33.126Z,0.60
2022-12-29T17:50:01.680Z,0.70
2022-12-29T17:52:29.848Z,1.02
2022-12-29T17:55:24.791Z,0.85
2022-12-29T17:57:54.002Z,1.17
2022-12-29T18:00:24.113Z,0.70
2022-12-29T18:02:54.435Z,0.95
2022-12-29T18:05:24.971Z,0.70
2022-12-29T18:07:54.335Z,0.50
2022-12-29T18:10:23.678Z,1.10
2022-12-29T18:12:53.568Z,1.20
2022-12-29T18:15:23.584Z,1.00
2022-12-29T18:17:59.383Z,0.63
2022-12-29T18:20:27.517Z,1.00
2022-12-29T18:22:55.347Z,1.10
2022-12-29T18:25:26.857Z,0.77
2022-12-29T18:27:54.902Z,0.77
2022-12-29T18:30:22.835Z,0.95
2022-12-29T18:32:51.054Z,0.85
2022-12-29T18:35:39.245Z,0.50
2022-12-29T18:38:07.179Z,0.60
2022-12-29T18:40:35.872Z,1.00
2022-12-29T18:43:04.027Z,1.05
2022-12-29T18:45:33.649Z,0.68
2022-12-29T18:48:01.671Z,1.45
2022-12-29T18:50:30.950Z,0.88
2022-12-29T18:53:03.809Z,0.80
2022-12-29T18:55:32.323Z,0.93
2022-12-29T18:58:00.664Z,0.82
2022-12-29T19:00:28.516Z,0.80
2022-12-29T19:02:56.544Z,0.73
2022-12-29T19:05:26.781Z,0.90
2022-12-29T19:07:56.699Z,1.00
2022-12-29T19:10:26.275Z,1.20
2022-12-29T19:12:54.531Z,1.10
2022-12-29T19:15:25.622Z,0.73
2022-12-29T19:18:32.523Z,1.10
2022-12-29T19:20:43.913Z,1.08
2022-12-29T19:23:14.784Z,1.95
2022-12-29T19:25:43.194Z,1.38
2022-12-29T19:28:18.511Z,1.60
2022-12-29T19:30:51.855Z,1.52
2022-12-29T19:33:23.536Z,1.08
2022-12-29T19:35:52.793Z,1.10
2022-12-29T19:38:22.027Z,1.13
2022-12-29T19:40:51.794Z,1.00
2022-12-29T19:43:20.053Z,0.80
2022-12-29T19:45:47.901Z,0.95
2022-12-29T19:48:19.186Z,1.10
2022-12-29T19:50:47.496Z,1.30
2022-12-29T19:53:15.937Z,0.88
2022-12-29T19:55:46.030Z,1.13
2022-12-29T19:58:15.247Z,0.80
2022-12-29T20:00:44.233Z,1.67
2022-12-29T20:03:12.376Z,1.10
2022-12-29T20:05:41.291Z,1.00
2022-12-29T20:08:09.232Z,0.90
2022-12-29T20:10:37.080Z,1.02
2022-12-29T20:13:06.501Z,2.17
2022-12-29T20:15:34.373Z,1.63
2022-12-29T20:18:17.580Z,1.15
2022-12-29T20:20:45.631Z,1.20
2022-12-29T20:23:13.414Z,0.73
2022-12-29T20:25:45.647Z,0.80
2022-12-29T20:28:16.674Z,1.02
2022-12-29T20:30:45.163Z,0.85
2022-12-29T20:33:13.174Z,0.80
2022-12-29T20:35:41.107Z,0.98
2022-12-29T20:38:09.237Z,1.00
2022-12-29T20:40:44.106Z,1.10
2022-12-29T20:43:17.362Z,1.48
2022-12-29T20:45:46.011Z,1.15
2022-12-29T20:48:14.092Z,1.00
2022-12-29T20:50:42.093Z,1.40
2022-12-29T20:53:11.700Z,2.05
2022-12-29T20:55:41.250Z,0.93
2022-12-29T20:58:25.358Z,0.80
2022-12-29T21:00:56.177Z,1.45
2022-12-29T21:03:24.803Z,2.50
2022-12-29T21:05:55.478Z,1.42
2022-12-29T21:08:23.588Z,1.02
2022-12-29T21:10:52.481Z,0.90
2022-12-29T21:13:21.118Z,0.85
2022-12-29T21:15:49.437Z,1.25
2022-12-29T21:18:18.761Z,0.93
2022-12-29T21:20:55.288Z,0.90
2022-12-29T21:23:23.310Z,1.23
2022-12-29T21:25:52.924Z,1.17
2022-12-29T21:28:21.701Z,1.00
2022-12-29T21:30:50.319Z,1.27
2022-12-29T21:33:20.924Z,1.02
2022-12-29T21:35:49.425Z,1.02
2022-12-29T21:38:17.332Z,1.40
2022-12-29T21:40:45.225Z,1.75
2022-12-29T21:43:13.418Z,1.45
2022-12-29T21:45:40.446Z,0.80
2022-12-29T21:48:25.167Z,1.13
2022-12-29T21:51:14.403Z,1.10
2022-12-29T21:53:44.988Z,1.13
2022-12-29T21:56:15.075Z,1.10
2022-12-29T21:59:02.153Z,1.52
2022-12-29T22:01:49.339Z,1.00
2022-12-29T22:04:36.733Z,1.70
2022-12-29T22:07:25.826Z,1.00
2022-12-29T22:10:11.867Z,1.17
2022-12-29T22:12:57.692Z,1.30
2022-12-29T22:15:26.107Z,1.55
2022-12-29T22:17:55.898Z,1.45
2022-12-29T22:20:27.381Z,1.52
2022-12-29T22:22:57.047Z,1.48
2022-12-29T22:25:25.031Z,1.42
2022-12-29T22:27:58.759Z,1.08
2022-12-29T22:30:27.712Z,0.98
2022-12-29T22:32:56.602Z,1.27
2022-12-29T22:35:24.818Z,1.63
2022-12-29T22:37:52.811Z,2.28
2022-12-29T22:40:22.038Z,1.17
2022-12-29T22:42:50.137Z,1.00
2022-12-29T22:45:18.024Z,1.20
2022-12-29T22:47:45.926Z,1.52
2022-12-29T22:50:13.784Z,0.85
2022-12-29T22:52:41.675Z,1.10
2022-12-29T22:55:10.097Z,1.30
2022-12-29T22:57:39.240Z,0.95
2022-12-29T23:00:10.393Z,1.05
2022-12-29T23:06:37.265Z,1.30
2022-12-29T23:09:06.459Z,1.33
2022-12-29T23:11:34.787Z,1.98
2022-12-29T23:14:02.773Z,2.72
2022-12-29T23:16:30.731Z,1.58
2022-12-29T23:18:58.625Z,1.98
2022-12-29T23:21:26.487Z,1.35
2022-12-29T23:23:56.114Z,1.10
2022-12-29T23:26:26.356Z,1.38
2022-12-29T23:28:59.942Z,1.08
2022-12-29T23:31:29.857Z,1.60
2022-12-29T23:33:57.817Z,1.10
2022-12-29T23:36:25.828Z,1.45
2022-12-29T23:38:55.626Z,1.00
2022-12-29T23:41:23.996Z,1.30
2022-12-29T23:43:51.886Z,1.70
2022-12-29T23:46:22.556Z,1.38
2022-12-29T23:48:50.763Z,1.63
2022-12-29T23:51:19.328Z,1.45
2022-12-29T23:53:47.527Z,1.55
2022-12-29T23:56:19.492Z,1.10
2022-12-29T23:58:47.994Z,1.45
